Time;durP1;ratioP1;P1;durP2;ratioP2;P2;SDS_P1;SDS_P2;PMS_P1;PMS_P2;Temp;Humidity;BMP_temperature;BMP_pressure;BME280_temperature;BME280_humidity;BME280_pressure;Samples;Min_cycle;Max_cycle;Signal;HPM_P1;HPM_P2
2023/01/14 00:00:39;;;;;;;25.37;18.90;;;;;;;7.01;61.70;101771.44;5008096;28;20461;-75
2023/01/14 00:03:04;;;;;;;23.48;18.63;;;;;;;7.07;62.04;101772.75;5008085;28;20893;-75
2023/01/14 00:05:30;;;;;;;25.53;19.07;;;;;;;7.16;61.23;101771.19;5008300;28;20443;-75
2023/01/14 00:07:55;;;;;;;25.50;17.87;;;;;;;7.19;61.45;101765.69;5007941;28;20384;-74
2023/01/14 00:10:20;;;;;;;24.90;18.40;;;;;;;7.23;61.60;101764.47;5008207;28;20393;-75
2023/01/14 00:12:46;;;;;;;23.07;17.87;;;;;;;7.16;61.40;101772.03;5008528;28;20399;-74
2023/01/14 00:15:11;;;;;;;23.13;18.13;;;;;;;7.21;61.62;101777.78;5008587;28;20412;-75
2023/01/14 00:17:37;;;;;;;24.33;17.77;;;;;;;7.17;61.56;101768.44;5008743;28;20396;-76
2023/01/14 00:20:03;;;;;;;23.97;18.13;;;;;;;7.12;61.68;101773.25;5004887;28;20776;-75
2023/01/14 00:22:31;;;;;;;24.93;18.47;;;;;;;7.15;61.42;101770.38;5008227;28;20411;-75
2023/01/14 00:24:57;;;;;;;23.70;18.40;;;;;;;7.14;61.58;101766.03;5008244;28;20388;-74
2023/01/14 00:27:23;;;;;;;27.03;18.57;;;;;;;7.11;61.77;101774.19;5008276;28;20889;-75
2023/01/14 00:29:48;;;;;;;23.13;18.17;;;;;;;7.04;62.05;101771.22;5008065;28;20404;-75
2023/01/14 00:32:16;;;;;;;23.55;17.67;;;;;;;7.09;61.98;101768.19;5006357;28;21096;-74
2023/01/14 00:34:41;;;;;;;24.10;19.15;;;;;;;7.09;62.22;101765.56;5007788;28;20392;-75
2023/01/14 00:37:07;;;;;;;23.93;18.13;;;;;;;7.08;62.11;101767.38;5008345;28;20834;-74
2023/01/14 00:39:32;;;;;;;24.67;18.63;;;;;;;7.05;62.34;101764.97;5007800;28;20449;-74
2023/01/14 00:41:58;;;;;;;24.13;17.60;;;;;;;7.04;62.16;101765.94;5007881;28;20507;-75
2023/01/14 00:44:24;;;;;;;25.30;18.15;;;;;;;7.07;62.51;101772.75;5008086;28;20475;-74
2023/01/14 00:46:50;;;;;;;23.42;17.88;;;;;;;7.12;62.52;101761.88;5007311;28;20453;-74
2023/01/14 00:49:19;;;;;;;23.25;17.13;;;;;;;7.19;62.12;101757.78;5007999;28;20385;-74
2023/01/14 00:51:45;;;;;;;26.03;18.40;;;;;;;7.17;62.19;101767.63;5006945;28;20384;-74
2023/01/14 00:54:11;;;;;;;24.25;17.50;;;;;;;7.18;62.05;101772.75;5007485;28;20394;-74
2023/01/14 00:56:36;;;;;;;23.15;17.17;;;;;;;7.19;62.19;101757.78;5007395;28;20809;-74
2023/01/14 00:59:02;;;;;;;23.75;17.52;;;;;;;7.21;62.08;101758.50;5007421;28;20430;-74
2023/01/14 01:01:27;;;;;;;25.57;18.00;;;;;;;7.27;61.92;101752.72;5006929;28;20419;-74
2023/01/14 01:03:56;;;;;;;23.23;17.20;;;;;;;7.28;62.06;101759.69;5007877;28;20392;-74
2023/01/14 01:06:23;;;;;;;20.93;15.83;;;;;;;7.28;61.92;101747.31;5010349;28;20392;-74
2023/01/14 01:08:49;;;;;;;20.38;15.60;;;;;;;7.36;61.79;101745.88;5010777;28;20396;-74
2023/01/14 01:11:16;;;;;;;21.35;15.90;;;;;;;7.39;61.76;101745.63;5010253;28;20402;-74
2023/01/14 01:13:42;;;;;;;18.07;15.23;;;;;;;7.49;61.29;101741.31;5011534;28;20494;-75
2023/01/14 01:16:12;;;;;;;20.70;15.52;;;;;;;7.54;61.24;101748.81;5010739;28;20424;-74
2023/01/14 01:18:38;;;;;;;21.10;15.48;;;;;;;7.60;61.16;101749.16;5010368;28;20403;-75
2023/01/14 01:21:05;;;;;;;17.83;14.60;;;;;;;7.56;61.23;101744.25;5010692;28;20472;-75
2023/01/14 01:23:32;;;;;;;18.73;14.63;;;;;;;7.66;61.27;101737.28;5011161;28;20928;-75
2023/01/14 01:26:02;;;;;;;18.80;14.77;;;;;;;7.73;60.56;101732.34;5010686;28;20392;-75
2023/01/14 01:28:28;;;;;;;21.48;14.55;;;;;;;7.74;60.76;101740.13;5010540;28;20424;-75
2023/01/14 01:30:53;;;;;;;17.23;13.75;;;;;;;7.76;60.88;101734.69;5010327;28;20404;-75
2023/01/14 01:33:19;;;;;;;19.38;14.85;;;;;;;7.72;60.78;101728.84;5010513;28;20396;-75
2023/01/14 01:35:44;;;;;;;18.50;14.13;;;;;;;7.69;60.73;101729.13;5010611;28;20400;-75
2023/01/14 01:38:10;;;;;;;17.07;13.50;;;;;;;7.65;61.14;101730.31;5010656;28;20392;-75
2023/01/14 01:40:35;;;;;;;16.80;13.40;;;;;;;7.63;61.26;101726.97;5010492;28;20421;-75
2023/01/14 01:43:01;;;;;;;17.90;14.27;;;;;;;7.60;61.32;101722.78;5011505;28;20406;-75
2023/01/14 01:45:45;;;;;;;17.13;13.53;;;;;;;7.59;61.22;101723.72;5009604;28;20554;-75
2023/01/14 01:48:35;;;;;;;18.65;14.43;;;;;;;7.60;61.44;101720.16;5009314;28;20407;-75
2023/01/14 01:51:09;;;;;;;17.95;13.70;;;;;;;7.57;61.15;101723.03;4995365;28;20483;-75
2023/01/14 01:53:38;;;;;;;19.98;13.98;;;;;;;7.56;61.34;101728.41;5010667;28;20431;-75
2023/01/14 01:56:06;;;;;;;16.40;13.13;;;;;;;7.54;61.10;101725.91;5010018;28;20395;-75
2023/01/14 01:58:32;;;;;;;17.63;13.70;;;;;;;7.50;61.29;101713.94;5010401;28;20416;-75
2023/01/14 02:00:58;;;;;;;17.65;13.38;;;;;;;7.50;61.61;101715.75;5010121;28;20879;-75
2023/01/14 02:03:38;;;;;;;18.23;13.23;;;;;;;7.40;61.41;101719.13;5009096;28;20395;-75
2023/01/14 02:06:05;;;;;;;17.02;13.32;;;;;;;7.32;62.07;101715.44;5010237;28;20457;-76
2023/01/14 02:08:31;;;;;;;17.45;14.23;;;;;;;7.39;61.92;101722.72;5010072;28;20733;-75
2023/01/14 02:11:15;;;;;;;18.38;13.30;;;;;;;7.40;61.93;101710.38;5009100;28;20384;-75
2023/01/14 02:13:49;;;;;;;18.15;14.40;;;;;;;7.41;61.80;101717.31;5008710;28;20388;-75
2023/01/14 02:16:33;;;;;;;18.52;14.15;;;;;;;7.45;61.51;101722.25;5008860;28;20416;-75
2023/01/14 02:19:14;;;;;;;21.15;15.13;;;;;;;7.43;61.66;101724.13;5009398;28;20422;-75
2023/01/14 02:21:47;;;;;;;19.25;14.13;;;;;;;7.45;61.69;101722.25;5009655;28;20884;-75
2023/01/14 02:24:15;;;;;;;20.90;15.13;;;;;;;7.44;61.57;101706.53;5008749;28;20394;-74
2023/01/14 02:27:09;;;;;;;21.63;15.33;;;;;;;7.45;61.43;101709.06;5008743;28;20393;-75
2023/01/14 02:29:59;;;;;;;21.42;15.60;;;;;;;7.43;61.42;101705.66;5009228;28;20682;-75
2023/01/14 02:32:34;;;;;;;23.40;17.02;;;;;;;7.41;61.61;101709.41;5009328;28;20977;-75
2023/01/14 02:35:11;;;;;;;22.38;16.05;;;;;;;7.39;61.84;101698.97;5009884;28;20399;-75
2023/01/14 02:38:00;;;;;;;23.05;16.10;;;;;;;7.35;61.73;101696.72;5010201;28;20740;-75
2023/01/14 02:40:49;;;;;;;19.80;15.23;;;;;;;7.38;61.82;101693.81;5009900;28;20384;-75
2023/01/14 02:46:37;;;;;;;19.48;15.20;;;;;;;7.33;61.77;101701.28;5009027;28;20477;-74
2023/01/14 02:49:06;;;;;;;19.98;15.35;;;;;;;7.32;61.70;101699.63;4994055;28;20403;-75
2023/01/14 02:51:33;;;;;;;20.27;14.98;;;;;;;7.33;61.69;101699.50;5008724;28;20392;-75
2023/01/14 02:53:58;;;;;;;21.00;14.75;;;;;;;7.20;61.91;101697.00;5009121;28;20403;-75
2023/01/14 02:56:24;;;;;;;21.13;15.07;;;;;;;7.20;62.16;101694.38;5009845;28;20729;-75
2023/01/14 02:59:20;;;;;;;20.45;14.75;;;;;;;7.23;62.15;101701.19;5008782;28;20388;-75
2023/01/14 03:02:07;;;;;;;20.17;14.77;;;;;;;7.18;62.06;101688.38;5008730;28;20942;-75
2023/01/14 03:05:03;;;;;;;21.33;14.43;;;;;;;7.13;62.36;101689.69;5008074;28;20400;-75
2023/01/14 03:07:44;;;;;;;19.08;14.65;;;;;;;7.16;62.46;101692.09;5009170;28;20396;-75
2023/01/14 03:10:28;;;;;;;20.15;14.70;;;;;;;7.18;62.33;101690.16;5009290;28;20414;-75
2023/01/14 03:12:59;;;;;;;21.30;14.73;;;;;;;7.19;61.77;101692.69;5008332;28;20419;-75
2023/01/14 03:15:30;;;;;;;20.40;15.45;;;;;;;7.26;61.88;101699.13;5008507;28;20391;-75
2023/01/14 03:18:19;;;;;;;19.23;14.40;;;;;;;7.24;62.02;101690.53;5009436;28;20388;-75
2023/01/14 03:21:01;;;;;;;21.45;14.90;;;;;;;7.19;62.17;101692.69;5008755;28;20898;-75
2023/01/14 03:23:33;;;;;;;19.83;15.90;;;;;;;7.19;61.90;101697.97;5009273;28;20871;-75
2023/01/14 03:26:00;;;;;;;20.55;15.52;;;;;;;7.17;62.16;101696.44;5009192;28;20395;-75
2023/01/14 03:28:38;;;;;;;21.00;15.20;;;;;;;7.13;62.09;101693.19;5008394;28;20416;-75
2023/01/14 03:31:09;;;;;;;20.27;14.80;;;;;;;7.14;62.14;101691.38;5008836;28;20403;-75
2023/01/14 03:33:43;;;;;;;21.27;14.95;;;;;;;7.18;62.10;101687.53;5008742;28;20388;-75
2023/01/14 03:36:12;;;;;;;21.38;15.80;;;;;;;7.32;61.78;101697.81;5009176;28;20397;-75
2023/01/14 03:38:53;;;;;;;20.80;15.27;;;;;;;7.46;61.55;101694.06;5007978;28;20389;-75
2023/01/14 03:44:13;;;;;;;21.10;15.10;;;;;;;7.51;61.21;101697.16;5008917;28;20929;-75
2023/01/14 03:46:39;;;;;;;22.33;16.33;;;;;;;7.44;61.18;101698.63;5008568;28;20884;-75
2023/01/14 03:49:05;;;;;;;23.63;16.33;;;;;;;7.52;60.98;101703.25;5008962;28;20388;-75
2023/01/14 03:51:47;;;;;;;23.27;16.77;;;;;;;7.53;60.80;101700.50;5008666;28;20403;-75
2023/01/14 03:54:33;;;;;;;22.42;16.40;;;;;;;7.51;60.85;101706.84;5008936;28;20394;-75
2023/01/14 03:57:05;;;;;;;21.13;15.48;;;;;;;7.53;60.88;101712.88;5009045;28;20388;-75
2023/01/14 03:59:37;;;;;;;22.50;15.88;;;;;;;7.62;60.52;101706.84;5008837;28;20391;-75
2023/01/14 04:02:04;;;;;;;20.52;16.05;;;;;;;7.68;60.60;101705.47;5008207;28;20412;-75
2023/01/14 04:04:31;;;;;;;20.70;15.55;;;;;;;7.73;60.75;101708.59;5008739;28;20388;-75
2023/01/14 04:06:57;;;;;;;22.27;15.82;;;;;;;7.72;60.48;101710.38;4995508;28;20412;-75
2023/01/14 04:09:22;;;;;;;21.45;16.02;;;;;;;7.71;60.67;101707.88;5007851;28;20512;-75
2023/01/14 04:11:48;;;;;;;23.33;15.93;;;;;;;7.54;60.78;101711.88;5008388;28;20792;-75
2023/01/14 04:16:58;;;;;;;21.73;15.93;;;;;;;7.54;60.81;101711.88;5008424;28;20783;-75
2023/01/14 04:19:23;;;;;;;23.23;16.63;;;;;;;7.50;61.08;101713.09;5007578;28;20392;-75
2023/01/14 04:21:49;;;;;;;20.93;15.87;;;;;;;7.52;61.05;101716.44;5008591;28;20514;-75
2023/01/14 04:24:14;;;;;;;23.90;18.40;;;;;;;7.53;61.27;101716.34;5008297;28;20403;-75
2023/01/14 04:26:40;;;;;;;25.67;17.67;;;;;;;7.53;61.13;101710.22;5008129;28;20384;-75
2023/01/14 04:29:05;;;;;;;27.10;18.00;;;;;;;7.55;61.26;101717.03;5007829;28;20559;-75
2023/01/14 04:31:30;;;;;;;25.20;17.80;;;;;;;7.60;61.01;101716.69;5009114;28;20396;-75
2023/01/14 04:33:56;;;;;;;26.53;19.70;;;;;;;7.63;60.70;101719.03;5008690;28;20445;-75
2023/01/14 04:36:21;;;;;;;27.03;19.80;;;;;;;7.60;60.56;101714.88;5020345;28;20392;-75
2023/01/14 04:38:47;;;;;;;23.60;18.35;;;;;;;7.55;60.68;101722.31;5007403;28;20396;-75
2023/01/14 04:42:25;;;;;;;25.83;18.77;;;;;;;7.49;60.76;101724.59;5006669;28;20764;-75
2023/01/14 04:43:59;;;;;;;26.42;18.33;;;;;;;7.47;60.77;101728.22;5003781;28;20397;-74
2023/01/14 04:46:25;;;;;;;25.20;18.08;;;;;;;7.42;61.21;101721.66;5003011;28;20396;-74
2023/01/14 04:48:50;;;;;;;26.10;18.52;;;;;;;7.41;61.12;101722.59;5007899;28;20424;-75
2023/01/14 04:51:16;;;;;;;26.10;18.08;;;;;;;7.30;61.33;101731.38;5008253;28;20420;-75
2023/01/14 04:53:41;;;;;;;62.77;45.57;;;;;;;7.30;61.37;101735.81;5006958;28;20399;-75
2023/01/14 04:56:07;;;;;;;42.80;33.97;;;;;;;7.24;61.30;101722.16;5007109;28;20712;-75
2023/01/14 04:58:32;;;;;;;24.98;19.25;;;;;;;7.27;61.36;101736.91;5007506;28;20392;-75
2023/01/14 05:00:59;;;;;;;25.07;17.57;;;;;;;7.21;61.38;101735.59;5003986;28;20416;-75
2023/01/14 05:03:25;;;;;;;23.55;16.77;;;;;;;7.06;61.77;101740.28;5001619;28;20454;-75
2023/01/14 05:05:50;;;;;;;25.70;18.25;;;;;;;7.08;62.02;101741.00;5004836;28;20388;-75
2023/01/14 05:08:16;;;;;;;27.87;19.30;;;;;;;7.07;61.75;101738.50;4996712;28;20401;-75
2023/01/14 05:10:41;;;;;;;23.37;18.60;;;;;;;7.05;62.15;101732.50;5003697;28;20427;-75
2023/01/14 05:13:11;;;;;;;24.20;17.98;;;;;;;7.13;62.07;101738.03;4994072;28;20859;-75
2023/01/14 05:15:39;;;;;;;22.92;18.05;;;;;;;7.21;61.95;101738.22;5007006;28;20449;-75
2023/01/14 05:18:06;;;;;;;25.13;18.60;;;;;;;7.31;61.94;101738.34;5007430;28;20392;-76
2023/01/14 05:20:32;;;;;;;24.63;17.83;;;;;;;7.14;61.32;101738.84;5006581;28;20416;-75
2023/01/14 05:23:03;;;;;;;24.08;18.70;;;;;;;7.10;61.99;101745.34;5007097;28;20428;-75
2023/01/14 05:25:31;;;;;;;25.58;18.63;;;;;;;7.07;61.70;101733.22;4991492;28;20398;-76
2023/01/14 05:28:00;;;;;;;25.73;18.80;;;;;;;7.15;61.58;101740.50;4991761;28;20417;-75
2023/01/14 05:30:27;;;;;;;28.52;20.55;;;;;;;7.10;61.70;101746.16;4997417;28;20400;-75
2023/01/14 05:32:52;;;;;;;28.30;20.35;;;;;;;7.03;61.87;101740.53;4993343;28;20417;-75
2023/01/14 05:35:17;;;;;;;27.17;20.23;;;;;;;7.07;62.00;101741.13;4989991;28;20387;-75
2023/01/14 05:37:43;;;;;;;26.97;20.50;;;;;;;7.20;62.08;101743.63;4988994;28;20401;-75
2023/01/14 05:40:09;;;;;;;29.17;20.23;;;;;;;7.24;61.56;101738.00;5003944;28;20392;-75
2023/01/14 05:48:03;;;;;;;28.58;20.88;;;;;;;7.04;61.82;101738.72;4998225;28;20397;-74
2023/01/14 05:50:28;;;;;;;27.63;19.67;;;;;;;7.06;61.84;101744.75;4999828;28;20475;-74
2023/01/14 05:52:54;;;;;;;26.42;19.70;;;;;;;7.00;61.78;101750.47;4998408;28;20385;-74
2023/01/14 05:55:19;;;;;;;28.07;20.67;;;;;;;6.91;62.17;101757.31;5009668;28;20933;-74
2023/01/14 05:57:45;;;;;;;26.37;19.10;;;;;;;6.96;62.41;101765.69;5003107;28;20390;-75
2023/01/14 06:06:20;;;;;;;26.13;19.45;;;;;;;6.99;62.09;101757.56;4994126;28;20477;-74
2023/01/14 06:08:24;;;;;;;26.27;18.40;;;;;;;6.96;62.15;101754.31;5001654;28;20418;-74
2023/01/14 06:10:49;;;;;;;29.13;19.40;;;;;;;6.95;62.24;101761.41;4997214;28;20804;-74
2023/01/14 06:13:15;;;;;;;31.33;20.90;;;;;;;7.06;62.26;101758.75;4995663;28;20446;-74
2023/01/14 06:15:43;;;;;;;26.30;18.73;;;;;;;7.05;61.97;101745.69;5001402;28;20400;-75
2023/01/14 06:18:15;;;;;;;29.13;19.23;;;;;;;7.12;61.98;101746.88;4998300;28;20442;-75
2023/01/14 06:20:44;;;;;;;26.40;19.35;;;;;;;7.25;61.94;101762.56;5006486;28;20721;-75
2023/01/14 06:23:10;;;;;;;25.60;19.23;;;;;;;7.24;61.47;101756.44;5006106;28;20863;-75
2023/01/14 06:25:36;;;;;;;27.48;19.40;;;;;;;7.14;61.81;101754.66;5004794;28;20386;-75
2023/01/14 06:28:01;;;;;;;30.93;22.10;;;;;;;7.20;61.76;101760.31;4997859;28;20788;-75
2023/01/14 06:30:30;;;;;;;36.67;21.70;;;;;;;7.28;61.59;101762.31;4994670;28;20756;-75
2023/01/14 06:32:56;;;;;;;31.80;21.45;;;;;;;7.29;61.12;101763.97;4999246;28;20959;-73
2023/01/14 06:35:22;;;;;;;30.40;21.48;;;;;;;7.09;61.75;101762.94;5002099;28;20479;-74
2023/01/14 06:37:48;;;;;;;31.27;21.48;;;;;;;7.00;62.09;101767.13;5008473;28;20384;-73
2023/01/14 06:40:14;;;;;;;30.63;21.02;;;;;;;6.88;62.39;101762.84;5003842;28;20413;-75
2023/01/14 06:42:42;;;;;;;26.15;18.63;;;;;;;6.88;62.46;101763.66;5011588;28;20439;-75
2023/01/14 06:45:10;;;;;;;27.13;19.92;;;;;;;6.92;62.36;101766.06;5011149;28;20454;-74
2023/01/14 06:47:36;;;;;;;29.80;20.73;;;;;;;6.95;62.37;101766.69;5012189;28;21061;-74
2023/01/14 06:50:02;;;;;;;28.75;20.13;;;;;;;7.07;62.34;101764.84;5012062;28;20390;-74
2023/01/14 06:52:28;;;;;;;35.50;24.10;;;;;;;7.06;62.21;101760.56;5016612;28;20376;-74
2023/01/14 06:54:55;;;;;;;30.33;21.63;;;;;;;6.97;62.29;101763.88;5013311;28;20399;-75
2023/01/14 06:57:21;;;;;;;28.65;21.20;;;;;;;7.01;62.29;101768.00;5007125;28;20380;-74
2023/01/14 06:59:46;;;;;;;33.75;25.00;;;;;;;7.06;62.07;101773.75;5013872;28;20384;-74
2023/01/14 07:02:12;;;;;;;33.07;25.07;;;;;;;7.11;62.20;101786.53;5015280;28;20397;-74
2023/01/14 07:04:38;;;;;;;31.30;22.52;;;;;;;7.02;62.24;101783.69;5007774;28;20394;-74
2023/01/14 07:07:04;;;;;;;31.33;19.70;;;;;;;6.91;62.49;101778.41;5008839;28;20386;-74
2023/01/14 07:09:29;;;;;;;30.23;21.88;;;;;;;6.99;62.72;101780.44;5004646;28;20447;-75
2023/01/14 07:11:55;;;;;;;26.65;20.52;;;;;;;7.09;62.45;101786.66;4996407;28;20378;-74
2023/01/14 07:14:20;;;;;;;28.13;19.67;;;;;;;7.21;62.37;101784.88;5005803;28;20392;-75
2023/01/14 07:16:46;;;;;;;27.57;18.90;;;;;;;7.30;62.37;101778.84;5014482;28;20384;-76
2023/01/14 07:19:11;;;;;;;28.47;20.23;;;;;;;7.31;62.04;101779.69;5013511;28;20742;-76
2023/01/14 07:21:38;;;;;;;28.58;18.00;;;;;;;7.27;62.03;101797.56;5016547;28;20408;-74
2023/01/14 07:24:04;;;;;;;27.85;18.77;;;;;;;7.17;62.25;101794.81;5014688;28;20413;-75
2023/01/14 07:26:29;;;;;;;31.38;18.88;;;;;;;7.16;62.29;101790.50;5003810;28;20408;-75
2023/01/14 07:28:55;;;;;;;26.87;17.70;;;;;;;7.19;62.27;101789.44;5016935;28;20419;-75
2023/01/14 07:31:21;;;;;;;29.40;19.33;;;;;;;7.17;62.53;101800.09;5012084;28;20380;-75
2023/01/14 07:33:46;;;;;;;26.77;18.58;;;;;;;7.23;62.41;101791.69;5008144;28;20464;-75
2023/01/14 07:36:12;;;;;;;30.45;19.75;;;;;;;7.38;62.44;101800.19;5008580;28;20380;-75
2023/01/14 07:38:37;;;;;;;29.38;19.10;;;;;;;7.44;62.26;101797.06;5007359;28;20874;-75
2023/01/14 07:41:11;;;;;;;28.38;19.60;;;;;;;7.48;61.73;101800.28;5052705;28;20415;-74
2023/01/14 07:43:37;;;;;;;30.02;20.10;;;;;;;7.37;61.82;101803.78;5073091;28;20839;-74
2023/01/14 07:46:03;;;;;;;35.78;25.13;;;;;;;7.45;62.07;101800.53;5081344;28;20398;-73
2023/01/14 07:48:29;;;;;;;29.48;20.88;;;;;;;7.57;61.53;101802.19;5069772;28;20847;-73
2023/01/14 07:50:55;;;;;;;33.17;21.00;;;;;;;7.61;61.76;101795.69;5069261;28;20379;-74
2023/01/14 07:53:21;;;;;;;29.83;19.98;;;;;;;7.60;61.69;101803.75;5073559;28;20387;-75
2023/01/14 07:55:46;;;;;;;27.60;19.23;;;;;;;7.54;61.51;101797.16;5069151;28;20899;-73
2023/01/14 07:58:14;;;;;;;30.57;20.20;;;;;;;7.52;61.69;101800.88;5089814;28;20707;-74
2023/01/14 08:00:40;;;;;;;30.00;18.92;;;;;;;7.52;62.31;101800.88;5073435;28;20468;-74
2023/01/14 08:03:05;;;;;;;30.48;20.10;;;;;;;7.66;61.94;101797.97;5069666;28;20395;-75
2023/01/14 08:05:34;;;;;;;30.20;19.02;;;;;;;7.68;61.64;101808.41;5070801;28;20862;-76
2023/01/14 08:07:59;;;;;;;30.23;19.42;;;;;;;7.56;61.92;101810.22;5087587;28;20374;-75
2023/01/14 08:10:25;;;;;;;30.00;19.30;;;;;;;7.68;61.69;101816.31;5091183;28;20446;-75
2023/01/14 08:12:50;;;;;;;29.27;19.25;;;;;;;7.73;61.30;101817.63;5091398;28;20362;-76
2023/01/14 08:15:16;;;;;;;28.60;18.58;;;;;;;7.81;61.43;101823.13;5089856;28;20435;-75
2023/01/14 08:17:41;;;;;;;29.27;19.42;;;;;;;7.75;61.30;101820.97;5077550;28;20374;-74
2023/01/14 08:20:09;;;;;;;29.90;18.47;;;;;;;7.81;61.16;101819.63;5091400;28;20401;-74
2023/01/14 08:22:35;;;;;;;29.98;19.85;;;;;;;7.88;61.00;101825.25;5090996;28;20397;-74
2023/01/14 08:25:00;;;;;;;31.07;20.33;;;;;;;7.87;61.09;101829.72;5091894;28;20397;-75
2023/01/14 08:27:27;;;;;;;32.08;19.50;;;;;;;7.97;60.76;101827.97;5091389;28;20388;-75
2023/01/14 08:29:52;;;;;;;29.47;19.50;;;;;;;7.96;60.58;101828.97;5088016;28;20478;-74
2023/01/14 08:32:17;;;;;;;29.50;19.57;;;;;;;7.96;60.86;101828.97;5091688;28;20373;-75
2023/01/14 08:34:43;;;;;;;26.20;17.60;;;;;;;8.15;60.92;101822.16;5090696;28;20935;-76
2023/01/14 08:37:08;;;;;;;29.38;19.48;;;;;;;8.23;60.68;101820.56;5083140;28;20411;-74
2023/01/14 08:39:34;;;;;;;25.80;18.17;;;;;;;8.35;60.57;101825.78;5069831;28;20379;-74
2023/01/14 08:41:59;;;;;;;25.57;17.50;;;;;;;8.43;60.51;101823.38;5071496;28;20418;-75
2023/01/14 08:44:25;;;;;;;20.85;14.52;;;;;;;8.53;60.86;101824.25;5073462;28;20847;-74
2023/01/14 08:46:50;;;;;;;26.97;17.80;;;;;;;8.53;60.33;101823.44;5070302;28;20847;-75
2023/01/14 08:49:16;;;;;;;27.57;16.63;;;;;;;8.41;60.14;101822.66;5069898;28;20391;-74
2023/01/14 08:51:41;;;;;;;23.80;16.07;;;;;;;8.54;60.11;101812.75;5070527;28;20403;-73
2023/01/14 08:54:07;;;;;;;23.95;15.93;;;;;;;8.59;59.99;101818.47;5087784;28;21028;-75
2023/01/14 08:56:33;;;;;;;25.13;16.47;;;;;;;8.70;59.68;101814.94;5090129;28;20755;-75
2023/01/14 08:59:00;;;;;;;40.88;36.65;;;;;;;8.75;59.34;101809.22;5090825;28;20396;-75
2023/01/14 09:01:26;;;;;;;28.55;24.13;;;;;;;8.72;59.51;101806.88;5084059;28;20758;-74
2023/01/14 09:03:53;;;;;;;26.77;18.27;;;;;;;8.70;59.54;101807.00;5090659;28;20781;-75
2023/01/14 09:06:19;;;;;;;25.95;18.15;;;;;;;8.79;59.88;101824.72;5090529;28;20378;-75
2023/01/14 09:17:06;;;;;;;21.55;16.23;;;;;;;9.03;58.87;101805.06;5089673;28;20482;-76
2023/01/14 09:19:49;;;;;;;22.33;16.13;;;;;;;9.13;58.92;101808.59;5090588;28;20513;-74
2023/01/14 09:22:19;;;;;;;23.30;15.93;;;;;;;9.21;58.57;101804.44;5090036;28;20401;-74
2023/01/14 09:24:45;;;;;;;23.65;16.48;;;;;;;9.15;58.05;101803.16;5090607;28;20413;-74
2023/01/14 09:27:11;;;;;;;28.55;17.40;;;;;;;9.24;58.24;101798.84;5093757;28;20377;-75
2023/01/14 09:29:36;;;;;;;20.15;15.40;;;;;;;9.26;58.51;101797.78;5094296;28;20404;-76
2023/01/14 09:32:02;;;;;;;24.07;15.37;;;;;;;9.26;57.83;101805.72;5094445;28;20377;-75
2023/01/14 09:34:27;;;;;;;26.03;22.10;;;;;;;9.32;58.25;101799.03;5094131;28;20392;-75
2023/01/14 09:36:54;;;;;;;29.98;24.17;;;;;;;9.40;57.58;101798.34;5094345;28;20396;-75
2023/01/14 09:39:20;;;;;;;23.42;15.15;;;;;;;9.46;57.50;101796.00;5094435;28;20373;-75
2023/01/14 09:41:52;;;;;;;20.70;14.73;;;;;;;9.52;57.19;101800.75;5094265;28;20488;-76
2023/01/14 09:44:19;;;;;;;23.48;16.42;;;;;;;9.45;57.97;101793.50;5094431;28;20381;-74
2023/01/14 09:46:44;;;;;;;26.38;20.35;;;;;;;9.59;57.25;101794.91;5093708;28;20476;-74
2023/01/14 09:49:15;;;;;;;33.07;19.63;;;;;;;9.63;57.04;101804.25;5094046;28;20448;-75
2023/01/14 09:51:59;;;;;;;34.80;21.63;;;;;;;9.60;57.58;101796.56;5094056;28;20703;-75
2023/01/14 09:54:48;;;;;;;25.80;17.83;;;;;;;9.66;56.82;101793.41;5094244;28;20365;-76
2023/01/14 09:57:17;;;;;;;25.95;17.45;;;;;;;9.51;56.75;101798.25;5093870;28;20380;-74
2023/01/14 09:59:58;;;;;;;73.10;39.90;;;;;;;9.44;57.45;101794.47;5094014;28;20464;-74
2023/01/14 10:02:43;;;;;;;24.88;17.35;;;;;;;9.46;57.02;101793.34;5082242;28;20892;-75
2023/01/14 10:05:21;;;;;;;27.27;17.55;;;;;;;9.49;57.59;101798.38;5090934;28;20933;-75
2023/01/14 10:07:48;;;;;;;22.63;15.30;;;;;;;9.57;56.73;101801.19;5089416;28;21003;-75
2023/01/14 10:10:22;;;;;;;43.45;24.83;;;;;;;9.54;57.53;101797.97;5092736;28;20405;-75
2023/01/14 10:12:49;;;;;;;61.63;35.25;;;;;;;9.48;56.86;101802.00;5093311;28;20838;-74
2023/01/14 10:15:18;;;;;;;22.40;15.20;;;;;;;9.48;56.94;101802.00;5092174;28;20377;-74
2023/01/14 10:17:49;;;;;;;19.70;13.93;;;;;;;9.50;57.23;101799.22;5091800;28;20385;-74
2023/01/14 10:20:24;;;;;;;18.52;13.98;;;;;;;9.59;57.07;101790.47;5081776;28;20954;-74
2023/01/14 10:22:57;;;;;;;20.65;15.57;;;;;;;9.66;56.43;101794.22;5088544;28;20499;-74
2023/01/14 10:25:23;;;;;;;22.80;15.30;;;;;;;9.72;56.51;101803.44;5088995;28;20385;-75
2023/01/14 10:27:53;;;;;;;23.10;16.60;;;;;;;9.71;56.64;101797.31;5092558;28;20463;-75
2023/01/14 10:30:38;;;;;;;31.48;28.45;;;;;;;9.68;56.54;101797.56;5092642;28;20440;-75
2023/01/14 10:33:06;;;;;;;31.33;26.63;;;;;;;9.69;56.54;101796.59;5093122;28;20368;-75
2023/01/14 10:35:34;;;;;;;24.70;19.38;;;;;;;9.63;56.59;101791.84;5093822;28;20369;-75
2023/01/14 10:38:01;;;;;;;20.73;15.40;;;;;;;9.56;56.49;101781.00;5093183;28;20444;-74
2023/01/14 10:40:29;;;;;;;23.17;15.63;;;;;;;9.62;56.84;101781.41;5092595;28;20447;-74
2023/01/14 10:42:56;;;;;;;21.67;15.50;;;;;;;9.58;56.40;101780.84;5091395;28;20449;-74
2023/01/14 10:45:22;;;;;;;29.08;16.52;;;;;;;9.59;56.55;101789.63;5092694;28;20494;-74
2023/01/14 10:47:53;;;;;;;24.50;15.80;;;;;;;9.57;56.66;101782.66;5092873;28;20918;-75
2023/01/14 10:50:27;;;;;;;22.17;15.47;;;;;;;9.56;57.11;101783.63;5092633;28;20381;-75
2023/01/14 10:52:53;;;;;;;22.65;16.13;;;;;;;9.63;57.05;101783.06;5089468;28;20373;-76
2023/01/14 10:55:23;;;;;;;21.45;16.48;;;;;;;9.65;56.52;101771.38;5088006;28;20381;-75
2023/01/14 10:58:06;;;;;;;23.48;19.33;;;;;;;9.63;56.75;101778.59;5091797;28;20381;-75
2023/01/14 11:00:35;;;;;;;36.00;31.08;;;;;;;9.63;56.45;101760.06;5087232;28;20468;-75
2023/01/14 11:03:23;;;;;;;48.40;43.95;;;;;;;9.65;56.66;101770.53;5091577;28;20433;-76
2023/01/14 11:05:55;;;;;;;20.87;15.63;;;;;;;9.63;56.52;101768.03;5088641;28;20400;-76
2023/01/14 11:08:45;;;;;;;31.33;27.92;;;;;;;9.62;56.22;101774.31;5088608;28;20380;-74
2023/01/14 11:11:15;;;;;;;30.85;26.52;;;;;;;9.57;56.34;101761.47;5090275;28;20435;-76
2023/01/14 11:13:44;;;;;;;26.98;19.10;;;;;;;9.58;56.65;101762.31;5089187;28;20369;-76
2023/01/14 11:16:21;;;;;;;24.00;17.20;;;;;;;9.62;56.60;101750.47;5092810;28;20373;-75
2023/01/14 11:18:58;;;;;;;22.23;18.33;;;;;;;9.60;56.48;101748.94;5088658;28;20385;-75
2023/01/14 11:21:25;;;;;;;31.88;28.35;;;;;;;9.52;56.34;101742.50;5091621;28;21161;-75
2023/01/14 11:23:57;;;;;;;32.67;29.13;;;;;;;9.52;56.17;101746.97;5090429;28;20374;-74
2023/01/14 11:26:30;;;;;;;22.50;15.18;;;;;;;9.52;56.07;101742.50;5090720;28;20377;-74
2023/01/14 11:29:21;;;;;;;22.25;17.70;;;;;;;9.53;56.33;101743.38;5089214;28;20471;-76
2023/01/14 11:31:50;;;;;;;28.98;17.67;;;;;;;9.45;56.43;101738.75;5080205;28;20394;-75
2023/01/14 11:34:30;;;;;;;25.55;17.45;;;;;;;9.51;56.25;101742.69;5075678;28;20383;-76
2023/01/14 11:37:09;;;;;;;43.08;23.77;;;;;;;9.55;55.89;101738.78;5080646;28;20382;-75
2023/01/14 11:39:37;;;;;;;39.85;35.70;;;;;;;9.60;56.25;101740.97;5080528;28;20381;-75
2023/01/14 11:42:27;;;;;;;31.75;28.40;;;;;;;9.53;56.39;101732.78;5089924;28;20418;-74
2023/01/14 11:45:00;;;;;;;24.63;16.13;;;;;;;9.52;56.82;101737.22;5080451;28;20396;-75
2023/01/14 11:47:29;;;;;;;22.25;15.40;;;;;;;9.59;56.43;101732.22;5077846;28;20390;-75
2023/01/14 11:50:20;;;;;;;19.83;14.00;;;;;;;9.56;56.12;101735.13;5077492;28;20441;-76
2023/01/14 11:53:16;;;;;;;22.40;16.77;;;;;;;9.54;56.52;101737.94;5073992;28;20404;-75
2023/01/14 11:55:44;;;;;;;25.80;17.15;;;;;;;9.47;56.52;101741.25;5076206;28;20391;-74